North Fairfield, Ohio
Current Conditions -  °F | °C
As of 7:52 PM on Friday 19 Dec 2014 (Local Time) from KMFD Reporting Station
Overcast Overcast  
Wind Chill: 28°   Ceiling: 1600
Heat Index: 28°   Visibility: 10mi
Dew Point: 22°   Wind: 0mph
Humidity: 78%   Direction: NA
Pressure: 30.28"   Gusts: NA
Location:  41.1°N, 82.61°W
Report Text: KMFD 200052Z 00000KT 10SM OVC016 M02/M06 A3028 RMK AO2 SLP270 T10221056
Loading
Personal Weather Stations






























Interactive Weather Map New forecast layout! Learn more

10-Day Weather Forecast

Advertisements
Track Severe Weather on mobile